sensor_id;sensor_type;location;lat;lon;timestamp;temperature;humidity
45969;DHT22;31676;40.444;-3.668;2022-12-20T00:01:32;22.70;76.40
45969;DHT22;31676;40.444;-3.668;2022-12-20T00:46:41;22.70;76.40
45969;DHT22;31676;40.444;-3.668;2022-12-20T00:49:07;22.70;76.40
45969;DHT22;31676;40.444;-3.668;2022-12-20T00:51:33;22.70;76.40
45969;DHT22;31676;40.444;-3.668;2022-12-20T00:53:59;22.70;76.40
45969;DHT22;31676;40.444;-3.668;2022-12-20T00:56:24;22.70;76.40
45969;DHT22;31676;40.444;-3.668;2022-12-20T00:58:50;22.70;76.40
45969;DHT22;31676;40.444;-3.668;2022-12-20T01:01:22;22.70;76.40
45969;DHT22;31676;40.444;-3.668;2022-12-20T01:03:48;22.70;76.40
45969;DHT22;31676;40.444;-3.668;2022-12-20T01:06:14;22.70;76.40
45969;DHT22;31676;40.444;-3.668;2022-12-20T01:08:40;22.70;76.40
45969;DHT22;31676;40.444;-3.668;2022-12-20T01:13:32;22.70;76.40
45969;DHT22;31676;40.444;-3.668;2022-12-20T01:16:08;22.70;76.40
45969;DHT22;31676;40.444;-3.668;2022-12-20T01:18:34;22.70;76.40
45969;DHT22;31676;40.444;-3.668;2022-12-20T01:21:00;22.70;76.40
45969;DHT22;31676;40.444;-3.668;2022-12-20T01:23:26;22.70;76.40
45969;DHT22;31676;40.444;-3.668;2022-12-20T01:25:52;22.60;76.40
45969;DHT22;31676;40.444;-3.668;2022-12-20T01:28:17;22.70;76.40
45969;DHT22;31676;40.444;-3.668;2022-12-20T01:30:43;22.70;76.40
45969;DHT22;31676;40.444;-3.668;2022-12-20T01:33:09;22.60;76.40
45969;DHT22;31676;40.444;-3.668;2022-12-20T01:35:34;22.70;76.40
45969;DHT22;31676;40.444;-3.668;2022-12-20T01:38:00;22.60;76.40
45969;DHT22;31676;40.444;-3.668;2022-12-20T01:40:26;22.60;76.40
45969;DHT22;31676;40.444;-3.668;2022-12-20T01:42:51;22.60;77.00
45969;DHT22;31676;40.444;-3.668;2022-12-20T01:45:20;22.60;76.40
45969;DHT22;31676;40.444;-3.668;2022-12-20T01:47:47;22.60;76.40
45969;DHT22;31676;40.444;-3.668;2022-12-20T01:50:13;22.60;76.40
45969;DHT22;31676;40.444;-3.668;2022-12-20T01:52:40;22.60;76.40
45969;DHT22;31676;40.444;-3.668;2022-12-20T01:55:12;22.60;76.40
45969;DHT22;31676;40.444;-3.668;2022-12-20T02:00:11;22.60;76.40
45969;DHT22;31676;40.444;-3.668;2022-12-20T02:02:37;22.60;76.40
45969;DHT22;31676;40.444;-3.668;2022-12-20T02:05:03;22.60;76.40
45969;DHT22;31676;40.444;-3.668;2022-12-20T02:07:30;22.60;76.40
45969;DHT22;31676;40.444;-3.668;2022-12-20T02:09:56;22.60;76.40
45969;DHT22;31676;40.444;-3.668;2022-12-20T02:12:23;22.60;76.40
45969;DHT22;31676;40.444;-3.668;2022-12-20T02:25:13;22.60;76.40
45969;DHT22;31676;40.444;-3.668;2022-12-20T02:30:45;22.60;76.40
45969;DHT22;31676;40.444;-3.668;2022-12-20T02:33:12;22.60;76.40
45969;DHT22;31676;40.444;-3.668;2022-12-20T02:35:38;22.60;76.40
45969;DHT22;31676;40.444;-3.668;2022-12-20T02:38:23;22.60;76.40
45969;DHT22;31676;40.444;-3.668;2022-12-20T02:40:49;22.60;76.40
45969;DHT22;31676;40.444;-3.668;2022-12-20T02:43:15;22.60;76.40
45969;DHT22;31676;40.444;-3.668;2022-12-20T02:46:01;22.60;76.40
45969;DHT22;31676;40.444;-3.668;2022-12-20T02:48:28;22.50;76.40
45969;DHT22;31676;40.444;-3.668;2022-12-20T02:50:55;22.60;76.50
45969;DHT22;31676;40.444;-3.668;2022-12-20T02:53:22;22.60;76.50
45969;DHT22;31676;40.444;-3.668;2022-12-20T02:55:50;22.50;76.40
45969;DHT22;31676;40.444;-3.668;2022-12-20T02:58:20;22.50;76.40
45969;DHT22;31676;40.444;-3.668;2022-12-20T03:00:48;22.60;76.50
45969;DHT22;31676;40.444;-3.668;2022-12-20T03:03:15;22.60;76.50
45969;DHT22;31676;40.444;-3.668;2022-12-20T03:05:47;22.50;76.40
45969;DHT22;31676;40.444;-3.668;2022-12-20T03:08:13;22.50;76.40
45969;DHT22;31676;40.444;-3.668;2022-12-20T03:10:39;22.50;76.40
45969;DHT22;31676;40.444;-3.668;2022-12-20T03:13:04;22.50;76.40
45969;DHT22;31676;40.444;-3.668;2022-12-20T03:15:30;22.50;76.40
45969;DHT22;31676;40.444;-3.668;2022-12-20T03:17:56;22.50;77.00
45969;DHT22;31676;40.444;-3.668;2022-12-20T03:20:21;22.50;76.40
45969;DHT22;31676;40.444;-3.668;2022-12-20T03:22:47;22.50;76.50
45969;DHT22;31676;40.444;-3.668;2022-12-20T03:25:13;22.50;76.40
45969;DHT22;31676;40.444;-3.668;2022-12-20T03:27:38;22.50;76.40
45969;DHT22;31676;40.444;-3.668;2022-12-20T03:30:04;22.50;76.40
45969;DHT22;31676;40.444;-3.668;2022-12-20T03:32:30;22.50;76.50
45969;DHT22;31676;40.444;-3.668;2022-12-20T03:34:56;22.50;76.50
45969;DHT22;31676;40.444;-3.668;2022-12-20T03:37:22;22.50;76.40
45969;DHT22;31676;40.444;-3.668;2022-12-20T03:39:47;22.50;76.50
45969;DHT22;31676;40.444;-3.668;2022-12-20T03:42:13;22.50;76.40
45969;DHT22;31676;40.444;-3.668;2022-12-20T03:44:39;22.50;76.50
45969;DHT22;31676;40.444;-3.668;2022-12-20T03:47:05;22.50;77.10
45969;DHT22;31676;40.444;-3.668;2022-12-20T03:49:30;22.50;76.40
45969;DHT22;31676;40.444;-3.668;2022-12-20T03:51:56;22.50;76.50
45969;DHT22;31676;40.444;-3.668;2022-12-20T03:54:22;22.50;76.50
45969;DHT22;31676;40.444;-3.668;2022-12-20T03:56:47;22.50;76.50
45969;DHT22;31676;40.444;-3.668;2022-12-20T03:59:13;22.50;76.50
45969;DHT22;31676;40.444;-3.668;2022-12-20T04:01:39;22.50;76.50
45969;DHT22;31676;40.444;-3.668;2022-12-20T04:04:06;22.50;76.50
45969;DHT22;31676;40.444;-3.668;2022-12-20T04:06:32;22.50;76.50
45969;DHT22;31676;40.444;-3.668;2022-12-20T04:08:57;22.50;76.50
45969;DHT22;31676;40.444;-3.668;2022-12-20T04:11:23;22.50;76.50
45969;DHT22;31676;40.444;-3.668;2022-12-20T04:13:50;22.40;76.40
45969;DHT22;31676;40.444;-3.668;2022-12-20T04:16:16;22.40;76.40
45969;DHT22;31676;40.444;-3.668;2022-12-20T04:18:42;22.50;76.50
45969;DHT22;31676;40.444;-3.668;2022-12-20T04:21:09;22.40;76.40
45969;DHT22;31676;40.444;-3.668;2022-12-20T04:23:35;22.40;76.40
45969;DHT22;31676;40.444;-3.668;2022-12-20T04:26:03;22.40;76.40
45969;DHT22;31676;40.444;-3.668;2022-12-20T04:28:29;22.40;76.40
45969;DHT22;31676;40.444;-3.668;2022-12-20T04:30:54;22.40;76.40
45969;DHT22;31676;40.444;-3.668;2022-12-20T04:33:20;22.40;76.40
45969;DHT22;31676;40.444;-3.668;2022-12-20T04:35:46;22.40;76.40
45969;DHT22;31676;40.444;-3.668;2022-12-20T04:38:12;22.40;76.40
45969;DHT22;31676;40.444;-3.668;2022-12-20T04:40:37;22.40;76.40
45969;DHT22;31676;40.444;-3.668;2022-12-20T04:43:03;22.40;76.50
45969;DHT22;31676;40.444;-3.668;2022-12-20T04:45:29;22.40;76.40
45969;DHT22;31676;40.444;-3.668;2022-12-20T04:47:54;22.40;76.40
45969;DHT22;31676;40.444;-3.668;2022-12-20T04:50:20;22.40;76.40
45969;DHT22;31676;40.444;-3.668;2022-12-20T04:52:46;22.40;76.50
45969;DHT22;31676;40.444;-3.668;2022-12-20T04:55:30;22.40;76.40
45969;DHT22;31676;40.444;-3.668;2022-12-20T04:57:56;22.40;76.40
45969;DHT22;31676;40.444;-3.668;2022-12-20T05:00:21;22.40;76.40
45969;DHT22;31676;40.444;-3.668;2022-12-20T05:02:47;22.40;76.40
45969;DHT22;31676;40.444;-3.668;2022-12-20T05:05:13;22.40;76.40
45969;DHT22;31676;40.444;-3.668;2022-12-20T05:07:38;22.40;76.40
45969;DHT22;31676;40.444;-3.668;2022-12-20T05:10:04;22.40;76.50
45969;DHT22;31676;40.444;-3.668;2022-12-20T05:12:30;22.40;76.40
45969;DHT22;31676;40.444;-3.668;2022-12-20T05:14:56;22.40;76.40
45969;DHT22;31676;40.444;-3.668;2022-12-20T05:17:21;22.40;76.50
45969;DHT22;31676;40.444;-3.668;2022-12-20T05:19:47;22.40;76.40
45969;DHT22;31676;40.444;-3.668;2022-12-20T05:22:13;22.40;76.40
45969;DHT22;31676;40.444;-3.668;2022-12-20T05:24:57;22.40;76.40
45969;DHT22;31676;40.444;-3.668;2022-12-20T05:27:41;22.40;76.40
45969;DHT22;31676;40.444;-3.668;2022-12-20T05:30:07;22.40;76.40
45969;DHT22;31676;40.444;-3.668;2022-12-20T05:32:33;22.40;76.50
45969;DHT22;31676;40.444;-3.668;2022-12-20T05:34:59;22.30;76.40
45969;DHT22;31676;40.444;-3.668;2022-12-20T05:37:24;22.40;76.50
45969;DHT22;31676;40.444;-3.668;2022-12-20T05:39:50;22.40;76.50
45969;DHT22;31676;40.444;-3.668;2022-12-20T05:42:16;22.40;76.40
45969;DHT22;31676;40.444;-3.668;2022-12-20T05:44:42;22.40;76.50
45969;DHT22;31676;40.444;-3.668;2022-12-20T05:47:08;22.40;76.40
45969;DHT22;31676;40.444;-3.668;2022-12-20T05:49:33;22.40;76.50
45969;DHT22;31676;40.444;-3.668;2022-12-20T05:52:00;22.30;76.40
45969;DHT22;31676;40.444;-3.668;2022-12-20T05:54:26;22.40;76.50
45969;DHT22;31676;40.444;-3.668;2022-12-20T05:56:51;22.30;76.40
45969;DHT22;31676;40.444;-3.668;2022-12-20T05:59:17;22.30;76.40
45969;DHT22;31676;40.444;-3.668;2022-12-20T06:01:43;22.30;76.40
45969;DHT22;31676;40.444;-3.668;2022-12-20T06:04:11;22.30;76.40
45969;DHT22;31676;40.444;-3.668;2022-12-20T06:06:36;22.30;76.40
45969;DHT22;31676;40.444;-3.668;2022-12-20T06:09:02;22.30;76.40
45969;DHT22;31676;40.444;-3.668;2022-12-20T06:11:28;22.30;76.40
45969;DHT22;31676;40.444;-3.668;2022-12-20T06:13:53;22.30;76.40
45969;DHT22;31676;40.444;-3.668;2022-12-20T06:16:19;22.30;76.40
45969;DHT22;31676;40.444;-3.668;2022-12-20T06:18:47;22.30;76.40
45969;DHT22;31676;40.444;-3.668;2022-12-20T06:21:13;22.30;76.40
45969;DHT22;31676;40.444;-3.668;2022-12-20T06:23:38;22.30;76.40
45969;DHT22;31676;40.444;-3.668;2022-12-20T06:26:04;22.30;76.40
45969;DHT22;31676;40.444;-3.668;2022-12-20T06:28:33;22.30;76.40
45969;DHT22;31676;40.444;-3.668;2022-12-20T06:30:59;22.30;76.40
45969;DHT22;31676;40.444;-3.668;2022-12-20T06:33:25;22.30;76.40
45969;DHT22;31676;40.444;-3.668;2022-12-20T06:35:51;22.30;76.40
45969;DHT22;31676;40.444;-3.668;2022-12-20T06:38:17;22.30;76.40
45969;DHT22;31676;40.444;-3.668;2022-12-20T06:40:43;22.30;76.40
45969;DHT22;31676;40.444;-3.668;2022-12-20T06:43:08;22.30;77.20
45969;DHT22;31676;40.444;-3.668;2022-12-20T06:45:34;22.30;76.40
45969;DHT22;31676;40.444;-3.668;2022-12-20T06:48:00;22.30;76.40
45969;DHT22;31676;40.444;-3.668;2022-12-20T06:50:25;22.30;76.40
45969;DHT22;31676;40.444;-3.668;2022-12-20T06:52:52;22.30;76.40
45969;DHT22;31676;40.444;-3.668;2022-12-20T06:55:17;22.30;76.40
45969;DHT22;31676;40.444;-3.668;2022-12-20T06:57:43;22.30;76.40
45969;DHT22;31676;40.444;-3.668;2022-12-20T07:00:09;22.30;76.40
45969;DHT22;31676;40.444;-3.668;2022-12-20T07:02:37;22.30;76.40
45969;DHT22;31676;40.444;-3.668;2022-12-20T07:05:03;22.30;76.40
45969;DHT22;31676;40.444;-3.668;2022-12-20T07:07:28;22.20;76.40
45969;DHT22;31676;40.444;-3.668;2022-12-20T07:09:54;22.20;76.40
45969;DHT22;31676;40.444;-3.668;2022-12-20T07:12:20;22.20;76.40
45969;DHT22;31676;40.444;-3.668;2022-12-20T07:14:46;22.20;76.40
45969;DHT22;31676;40.444;-3.668;2022-12-20T07:17:12;22.20;76.40
45969;DHT22;31676;40.444;-3.668;2022-12-20T07:19:37;22.20;76.40
45969;DHT22;31676;40.444;-3.668;2022-12-20T07:22:03;22.20;76.40
45969;DHT22;31676;40.444;-3.668;2022-12-20T07:24:30;22.20;76.40
45969;DHT22;31676;40.444;-3.668;2022-12-20T07:26:55;22.20;76.40
45969;DHT22;31676;40.444;-3.668;2022-12-20T07:29:21;22.30;76.40
45969;DHT22;31676;40.444;-3.668;2022-12-20T07:31:47;22.20;76.40
45969;DHT22;31676;40.444;-3.668;2022-12-20T07:34:12;22.20;76.40
45969;DHT22;31676;40.444;-3.668;2022-12-20T07:36:38;22.20;76.40
45969;DHT22;31676;40.444;-3.668;2022-12-20T07:39:04;22.20;76.40
45969;DHT22;31676;40.444;-3.668;2022-12-20T07:41:29;22.20;76.40
45969;DHT22;31676;40.444;-3.668;2022-12-20T07:43:55;22.20;76.40
45969;DHT22;31676;40.444;-3.668;2022-12-20T07:46:23;22.20;76.40
45969;DHT22;31676;40.444;-3.668;2022-12-20T07:48:49;22.20;76.40
45969;DHT22;31676;40.444;-3.668;2022-12-20T07:51:19;22.20;76.40
45969;DHT22;31676;40.444;-3.668;2022-12-20T07:53:47;22.20;76.40
45969;DHT22;31676;40.444;-3.668;2022-12-20T07:56:14;22.20;76.40
45969;DHT22;31676;40.444;-3.668;2022-12-20T07:58:40;22.20;76.40
45969;DHT22;31676;40.444;-3.668;2022-12-20T08:01:07;22.20;76.40
45969;DHT22;31676;40.444;-3.668;2022-12-20T08:03:45;22.20;76.40
45969;DHT22;31676;40.444;-3.668;2022-12-20T08:06:11;22.20;76.40
45969;DHT22;31676;40.444;-3.668;2022-12-20T08:08:39;22.20;76.40
45969;DHT22;31676;40.444;-3.668;2022-12-20T08:11:07;22.20;76.40
45969;DHT22;31676;40.444;-3.668;2022-12-20T08:13:33;22.20;76.40
45969;DHT22;31676;40.444;-3.668;2022-12-20T08:15:59;22.20;76.40
45969;DHT22;31676;40.444;-3.668;2022-12-20T08:18:25;22.20;76.40
45969;DHT22;31676;40.444;-3.668;2022-12-20T08:20:51;22.20;76.40
45969;DHT22;31676;40.444;-3.668;2022-12-20T08:23:17;22.20;76.30
45969;DHT22;31676;40.444;-3.668;2022-12-20T08:25:43;22.20;76.40
45969;DHT22;31676;40.444;-3.668;2022-12-20T08:28:09;22.20;76.40
45969;DHT22;31676;40.444;-3.668;2022-12-20T08:30:35;22.20;76.40
45969;DHT22;31676;40.444;-3.668;2022-12-20T08:33:01;22.20;76.40
45969;DHT22;31676;40.444;-3.668;2022-12-20T08:35:28;22.20;76.40
45969;DHT22;31676;40.444;-3.668;2022-12-20T08:37:54;22.20;76.40
45969;DHT22;31676;40.444;-3.668;2022-12-20T08:40:19;22.20;76.40
45969;DHT22;31676;40.444;-3.668;2022-12-20T08:42:45;22.10;76.40
45969;DHT22;31676;40.444;-3.668;2022-12-20T08:45:11;22.10;76.40
45969;DHT22;31676;40.444;-3.668;2022-12-20T08:47:37;22.20;76.40
45969;DHT22;31676;40.444;-3.668;2022-12-20T08:50:03;22.20;76.40
45969;DHT22;31676;40.444;-3.668;2022-12-20T08:52:29;22.20;76.40
45969;DHT22;31676;40.444;-3.668;2022-12-20T08:54:55;22.10;76.40
45969;DHT22;31676;40.444;-3.668;2022-12-20T08:57:21;22.10;76.40
45969;DHT22;31676;40.444;-3.668;2022-12-20T08:59:46;22.10;77.00
45969;DHT22;31676;40.444;-3.668;2022-12-20T09:02:13;22.20;76.40
45969;DHT22;31676;40.444;-3.668;2022-12-20T09:04:38;22.10;76.30
45969;DHT22;31676;40.444;-3.668;2022-12-20T09:07:04;22.10;76.40
45969;DHT22;31676;40.444;-3.668;2022-12-20T09:09:30;22.20;76.40
45969;DHT22;31676;40.444;-3.668;2022-12-20T09:11:56;22.20;76.40
45969;DHT22;31676;40.444;-3.668;2022-12-20T09:14:22;22.10;76.30
45969;DHT22;31676;40.444;-3.668;2022-12-20T09:16:47;22.10;76.40
45969;DHT22;31676;40.444;-3.668;2022-12-20T09:19:14;22.10;76.30
45969;DHT22;31676;40.444;-3.668;2022-12-20T09:21:39;22.10;76.40
45969;DHT22;31676;40.444;-3.668;2022-12-20T09:24:05;22.10;76.30
45969;DHT22;31676;40.444;-3.668;2022-12-20T09:26:31;22.20;76.40
45969;DHT22;31676;40.444;-3.668;2022-12-20T09:28:57;22.10;76.30
45969;DHT22;31676;40.444;-3.668;2022-12-20T09:31:23;22.10;76.30
45969;DHT22;31676;40.444;-3.668;2022-12-20T09:33:52;22.20;76.40
45969;DHT22;31676;40.444;-3.668;2022-12-20T09:36:19;22.20;76.40
45969;DHT22;31676;40.444;-3.668;2022-12-20T09:38:46;22.10;76.30
45969;DHT22;31676;40.444;-3.668;2022-12-20T09:41:28;22.20;76.40
45969;DHT22;31676;40.444;-3.668;2022-12-20T09:43:57;22.10;76.30
45969;DHT22;31676;40.444;-3.668;2022-12-20T09:46:22;22.20;76.40
45969;DHT22;31676;40.444;-3.668;2022-12-20T09:48:49;22.20;76.40
45969;DHT22;31676;40.444;-3.668;2022-12-20T09:51:29;22.20;76.40
45969;DHT22;31676;40.444;-3.668;2022-12-20T09:56:45;22.20;76.40
45969;DHT22;31676;40.444;-3.668;2022-12-20T09:59:12;22.20;76.40
45969;DHT22;31676;40.444;-3.668;2022-12-20T10:01:39;22.20;76.40
45969;DHT22;31676;40.444;-3.668;2022-12-20T10:04:26;22.20;76.40
45969;DHT22;31676;40.444;-3.668;2022-12-20T10:14:36;22.30;76.40
45969;DHT22;31676;40.444;-3.668;2022-12-20T10:17:11;22.20;76.40
45969;DHT22;31676;40.444;-3.668;2022-12-20T10:22:06;22.30;76.40
45969;DHT22;31676;40.444;-3.668;2022-12-20T10:24:34;22.20;76.90
45969;DHT22;31676;40.444;-3.668;2022-12-20T10:27:11;22.30;76.30
45969;DHT22;31676;40.444;-3.668;2022-12-20T10:29:37;22.30;76.40
45969;DHT22;31676;40.444;-3.668;2022-12-20T10:32:07;22.30;76.30
45969;DHT22;31676;40.444;-3.668;2022-12-20T10:34:34;22.30;76.30
45969;DHT22;31676;40.444;-3.668;2022-12-20T10:37:10;22.30;76.30
45969;DHT22;31676;40.444;-3.668;2022-12-20T10:39:40;22.30;76.30
45969;DHT22;31676;40.444;-3.668;2022-12-20T10:42:18;22.30;76.30
45969;DHT22;31676;40.444;-3.668;2022-12-20T10:44:48;22.30;76.30
45969;DHT22;31676;40.444;-3.668;2022-12-20T10:52:43;22.30;76.20
45969;DHT22;31676;40.444;-3.668;2022-12-20T10:57:53;22.30;76.20
45969;DHT22;31676;40.444;-3.668;2022-12-20T11:00:28;22.30;76.20
45969;DHT22;31676;40.444;-3.668;2022-12-20T11:03:27;22.30;76.20
45969;DHT22;31676;40.444;-3.668;2022-12-20T11:05:59;22.30;76.20
45969;DHT22;31676;40.444;-3.668;2022-12-20T11:08:27;22.40;76.20
45969;DHT22;31676;40.444;-3.668;2022-12-20T11:11:12;22.40;76.20
45969;DHT22;31676;40.444;-3.668;2022-12-20T11:13:39;22.40;76.20
45969;DHT22;31676;40.444;-3.668;2022-12-20T11:16:08;22.40;76.20
45969;DHT22;31676;40.444;-3.668;2022-12-20T11:23:44;22.40;76.10
45969;DHT22;31676;40.444;-3.668;2022-12-20T11:33:40;22.50;76.10
45969;DHT22;31676;40.444;-3.668;2022-12-20T11:36:10;22.40;76.10
45969;DHT22;31676;40.444;-3.668;2022-12-20T11:38:48;22.50;76.10
45969;DHT22;31676;40.444;-3.668;2022-12-20T11:51:47;22.50;76.10
45969;DHT22;31676;40.444;-3.668;2022-12-20T11:54:20;22.50;76.10
45969;DHT22;31676;40.444;-3.668;2022-12-20T11:56:49;22.50;76.00
45969;DHT22;31676;40.444;-3.668;2022-12-20T11:59:18;22.50;76.10
45969;DHT22;31676;40.444;-3.668;2022-12-20T12:01:55;22.50;76.00
45969;DHT22;31676;40.444;-3.668;2022-12-20T12:04:25;22.50;76.00
45969;DHT22;31676;40.444;-3.668;2022-12-20T12:07:08;22.60;76.10
45969;DHT22;31676;40.444;-3.668;2022-12-20T12:09:40;22.60;76.10
45969;DHT22;31676;40.444;-3.668;2022-12-20T12:17:38;22.60;76.10
45969;DHT22;31676;40.444;-3.668;2022-12-20T12:23:19;22.60;76.10
45969;DHT22;31676;40.444;-3.668;2022-12-20T12:25:46;22.60;76.10
45969;DHT22;31676;40.444;-3.668;2022-12-20T12:28:11;22.60;76.00
45969;DHT22;31676;40.444;-3.668;2022-12-20T12:30:45;22.60;76.00
45969;DHT22;31676;40.444;-3.668;2022-12-20T12:33:34;22.60;76.00
45969;DHT22;31676;40.444;-3.668;2022-12-20T12:36:03;22.60;76.00
45969;DHT22;31676;40.444;-3.668;2022-12-20T12:46:33;22.70;76.00
45969;DHT22;31676;40.444;-3.668;2022-12-20T12:51:29;22.70;76.00
45969;DHT22;31676;40.444;-3.668;2022-12-20T12:54:11;22.70;76.00
45969;DHT22;31676;40.444;-3.668;2022-12-20T12:56:45;22.70;76.00
45969;DHT22;31676;40.444;-3.668;2022-12-20T13:01:55;22.70;76.00
45969;DHT22;31676;40.444;-3.668;2022-12-20T13:10:00;22.70;76.00
45969;DHT22;31676;40.444;-3.668;2022-12-20T13:14:58;22.70;75.90
45969;DHT22;31676;40.444;-3.668;2022-12-20T13:19:50;22.80;76.00
45969;DHT22;31676;40.444;-3.668;2022-12-20T13:40:56;22.80;75.90
45969;DHT22;31676;40.444;-3.668;2022-12-20T13:43:24;22.80;75.90
45969;DHT22;31676;40.444;-3.668;2022-12-20T13:45:52;22.80;75.90
45969;DHT22;31676;40.444;-3.668;2022-12-20T13:48:29;22.80;75.90
45969;DHT22;31676;40.444;-3.668;2022-12-20T13:50:57;22.80;75.90
45969;DHT22;31676;40.444;-3.668;2022-12-20T13:53:24;22.80;75.90
45969;DHT22;31676;40.444;-3.668;2022-12-20T13:55:51;22.80;75.90
45969;DHT22;31676;40.444;-3.668;2022-12-20T13:58:24;22.80;75.90
45969;DHT22;31676;40.444;-3.668;2022-12-20T14:00:50;22.80;75.90
45969;DHT22;31676;40.444;-3.668;2022-12-20T14:05:45;22.80;75.90
45969;DHT22;31676;40.444;-3.668;2022-12-20T14:08:15;22.80;75.90
45969;DHT22;31676;40.444;-3.668;2022-12-20T14:10:42;22.80;75.80
45969;DHT22;31676;40.444;-3.668;2022-12-20T14:13:26;22.90;75.90
45969;DHT22;31676;40.444;-3.668;2022-12-20T14:15:52;22.80;75.90
45969;DHT22;31676;40.444;-3.668;2022-12-20T14:18:25;22.80;75.80
45969;DHT22;31676;40.444;-3.668;2022-12-20T14:20:54;22.80;75.80
45969;DHT22;31676;40.444;-3.668;2022-12-20T14:23:21;22.90;75.90
45969;DHT22;31676;40.444;-3.668;2022-12-20T14:25:55;22.90;75.90
45969;DHT22;31676;40.444;-3.668;2022-12-20T14:28:41;22.80;75.80
45969;DHT22;31676;40.444;-3.668;2022-12-20T14:36:35;22.90;75.90
45969;DHT22;31676;40.444;-3.668;2022-12-20T14:39:09;22.90;75.90
45969;DHT22;31676;40.444;-3.668;2022-12-20T14:41:45;22.90;75.80
45969;DHT22;31676;40.444;-3.668;2022-12-20T14:46:37;22.90;75.80
45969;DHT22;31676;40.444;-3.668;2022-12-20T14:51:40;22.90;75.80
45969;DHT22;31676;40.444;-3.668;2022-12-20T14:54:10;22.90;75.80
45969;DHT22;31676;40.444;-3.668;2022-12-20T14:56:37;22.90;75.80
45969;DHT22;31676;40.444;-3.668;2022-12-20T14:59:12;22.90;75.80
45969;DHT22;31676;40.444;-3.668;2022-12-20T15:01:39;22.90;75.80
45969;DHT22;31676;40.444;-3.668;2022-12-20T15:06:48;22.90;75.80
45969;DHT22;31676;40.444;-3.668;2022-12-20T15:09:17;22.90;75.80
45969;DHT22;31676;40.444;-3.668;2022-12-20T15:11:43;22.90;75.80
45969;DHT22;31676;40.444;-3.668;2022-12-20T15:16:53;22.90;75.80
45969;DHT22;31676;40.444;-3.668;2022-12-20T15:19:19;22.90;75.80
45969;DHT22;31676;40.444;-3.668;2022-12-20T15:21:45;22.90;75.80
45969;DHT22;31676;40.444;-3.668;2022-12-20T15:24:12;22.90;75.80
45969;DHT22;31676;40.444;-3.668;2022-12-20T15:26:37;22.90;75.90
45969;DHT22;31676;40.444;-3.668;2022-12-20T15:29:04;22.90;75.80
45969;DHT22;31676;40.444;-3.668;2022-12-20T15:31:29;22.90;75.80
45969;DHT22;31676;40.444;-3.668;2022-12-20T15:33:57;23.00;75.90
45969;DHT22;31676;40.444;-3.668;2022-12-20T15:36:24;22.90;75.80
45969;DHT22;31676;40.444;-3.668;2022-12-20T15:38:51;22.90;75.80
45969;DHT22;31676;40.444;-3.668;2022-12-20T15:41:27;23.00;75.90
45969;DHT22;31676;40.444;-3.668;2022-12-20T15:43:54;22.90;75.80
45969;DHT22;31676;40.444;-3.668;2022-12-20T15:46:21;22.90;75.90
45969;DHT22;31676;40.444;-3.668;2022-12-20T15:48:47;22.90;75.80
45969;DHT22;31676;40.444;-3.668;2022-12-20T15:51:34;22.90;75.80
45969;DHT22;31676;40.444;-3.668;2022-12-20T15:53:59;23.00;76.50
45969;DHT22;31676;40.444;-3.668;2022-12-20T15:56:26;22.90;75.80
45969;DHT22;31676;40.444;-3.668;2022-12-20T15:58:52;22.90;75.90
45969;DHT22;31676;40.444;-3.668;2022-12-20T16:01:26;22.90;75.80
45969;DHT22;31676;40.444;-3.668;2022-12-20T16:03:53;22.90;75.80
45969;DHT22;31676;40.444;-3.668;2022-12-20T16:06:18;22.90;75.80
45969;DHT22;31676;40.444;-3.668;2022-12-20T16:08:44;23.00;75.90
45969;DHT22;31676;40.444;-3.668;2022-12-20T16:11:18;22.90;75.80
45969;DHT22;31676;40.444;-3.668;2022-12-20T16:13:45;22.90;75.90
45969;DHT22;31676;40.444;-3.668;2022-12-20T16:16:15;22.90;75.80
45969;DHT22;31676;40.444;-3.668;2022-12-20T16:18:41;22.90;75.90
45969;DHT22;31676;40.444;-3.668;2022-12-20T16:21:19;22.90;75.80
45969;DHT22;31676;40.444;-3.668;2022-12-20T16:23:45;22.90;75.90
45969;DHT22;31676;40.444;-3.668;2022-12-20T16:26:14;22.90;76.50
45969;DHT22;31676;40.444;-3.668;2022-12-20T16:28:41;22.90;75.90
45969;DHT22;31676;40.444;-3.668;2022-12-20T16:31:11;22.90;75.90
45969;DHT22;31676;40.444;-3.668;2022-12-20T16:33:41;22.90;75.90
45969;DHT22;31676;40.444;-3.668;2022-12-20T16:36:09;22.90;75.90
45969;DHT22;31676;40.444;-3.668;2022-12-20T16:38:35;22.90;75.90
45969;DHT22;31676;40.444;-3.668;2022-12-20T16:41:09;22.90;75.90
45969;DHT22;31676;40.444;-3.668;2022-12-20T16:43:36;22.90;75.90
45969;DHT22;31676;40.444;-3.668;2022-12-20T16:46:01;22.90;75.90
45969;DHT22;31676;40.444;-3.668;2022-12-20T16:48:27;22.90;75.90
45969;DHT22;31676;40.444;-3.668;2022-12-20T16:50:52;22.90;75.90
45969;DHT22;31676;40.444;-3.668;2022-12-20T16:53:18;22.90;75.90
45969;DHT22;31676;40.444;-3.668;2022-12-20T16:55:44;23.00;76.00
45969;DHT22;31676;40.444;-3.668;2022-12-20T16:58:10;23.00;76.00
45969;DHT22;31676;40.444;-3.668;2022-12-20T17:00:36;22.90;75.90
45969;DHT22;31676;40.444;-3.668;2022-12-20T17:03:02;22.90;75.90
45969;DHT22;31676;40.444;-3.668;2022-12-20T17:05:29;22.90;75.90
45969;DHT22;31676;40.444;-3.668;2022-12-20T17:07:55;22.90;75.90
45969;DHT22;31676;40.444;-3.668;2022-12-20T17:10:22;22.90;75.90
45969;DHT22;31676;40.444;-3.668;2022-12-20T17:12:48;22.90;75.90
45969;DHT22;31676;40.444;-3.668;2022-12-20T17:17:46;22.90;75.90
45969;DHT22;31676;40.444;-3.668;2022-12-20T17:20:12;23.00;76.00
45969;DHT22;31676;40.444;-3.668;2022-12-20T17:22:38;23.00;76.00
45969;DHT22;31676;40.444;-3.668;2022-12-20T17:25:04;23.00;76.00
45969;DHT22;31676;40.444;-3.668;2022-12-20T17:27:29;23.00;76.00
45969;DHT22;31676;40.444;-3.668;2022-12-20T17:29:55;23.00;76.00
45969;DHT22;31676;40.444;-3.668;2022-12-20T17:32:22;23.00;76.00
45969;DHT22;31676;40.444;-3.668;2022-12-20T17:34:47;23.00;76.00
45969;DHT22;31676;40.444;-3.668;2022-12-20T17:37:13;23.00;76.00
45969;DHT22;31676;40.444;-3.668;2022-12-20T17:39:39;22.90;75.90
45969;DHT22;31676;40.444;-3.668;2022-12-20T17:42:05;23.00;76.00
45969;DHT22;31676;40.444;-3.668;2022-12-20T17:44:30;23.00;76.00
45969;DHT22;31676;40.444;-3.668;2022-12-20T17:46:56;23.00;76.00
45969;DHT22;31676;40.444;-3.668;2022-12-20T17:49:22;23.00;76.00
45969;DHT22;31676;40.444;-3.668;2022-12-20T17:51:48;23.00;76.00
45969;DHT22;31676;40.444;-3.668;2022-12-20T17:54:20;23.00;76.00
45969;DHT22;31676;40.444;-3.668;2022-12-20T17:56:46;23.00;76.00
45969;DHT22;31676;40.444;-3.668;2022-12-20T17:59:12;23.00;76.00
45969;DHT22;31676;40.444;-3.668;2022-12-20T18:01:38;23.00;76.00
45969;DHT22;31676;40.444;-3.668;2022-12-20T18:04:05;23.00;76.00
45969;DHT22;31676;40.444;-3.668;2022-12-20T18:06:32;23.00;76.00
45969;DHT22;31676;40.444;-3.668;2022-12-20T18:08:58;23.00;76.00
45969;DHT22;31676;40.444;-3.668;2022-12-20T18:11:25;23.00;76.00
45969;DHT22;31676;40.444;-3.668;2022-12-20T18:13:52;23.00;76.00
45969;DHT22;31676;40.444;-3.668;2022-12-20T18:16:23;23.00;76.00